Newport, Tennessee
Current Conditions -  °F | °C
As of 2:15 PM on Monday 20 Oct 2014 (Local Time) from KMOR Reporting Station
Few Clouds Few Clouds  
Wind Chill: 64°   Ceiling: Unl
Heat Index: 64°   Visibility: 10mi
Dew Point: 50°   Wind: 6mph
Humidity: 59%   Direction: 270°W
Pressure: 30.03"   Gusts: NA
Location:  35.97°N, 83.18°W
Report Text: KMOR 201815Z AUTO 27005KT 10SM FEW036 18/10 A3003 RMK
Loading
Personal Weather Stations






























Interactive Weather Map
Tropical Storm Tracking
New forecast layout! Learn more

10-Day Weather Forecast

Advertisements
Track Severe Weather on mobile